sensor_id;sensor_type;location;lat;lon;timestamp;P1;durP1;ratioP1;P2;durP2;ratioP2
3101;SDS011;1561;42.666;23.392;2023-03-14T00:01:28;8.63;;;6.70;;
3101;SDS011;1561;42.666;23.392;2023-03-14T00:03:56;10.50;;;7.90;;
3101;SDS011;1561;42.666;23.392;2023-03-14T00:06:23;7.30;;;6.60;;
3101;SDS011;1561;42.666;23.392;2023-03-14T00:08:50;11.40;;;6.83;;
3101;SDS011;1561;42.666;23.392;2023-03-14T00:11:18;8.47;;;6.00;;
3101;SDS011;1561;42.666;23.392;2023-03-14T00:13:48;7.63;;;6.80;;
3101;SDS011;1561;42.666;23.392;2023-03-14T00:16:15;7.87;;;6.70;;
3101;SDS011;1561;42.666;23.392;2023-03-14T00:18:44;7.27;;;6.47;;
3101;SDS011;1561;42.666;23.392;2023-03-14T00:21:11;7.33;;;6.07;;
3101;SDS011;1561;42.666;23.392;2023-03-14T00:23:38;6.37;;;5.77;;
3101;SDS011;1561;42.666;23.392;2023-03-14T00:26:07;8.03;;;5.73;;
3101;SDS011;1561;42.666;23.392;2023-03-14T00:28:36;6.13;;;5.53;;
3101;SDS011;1561;42.666;23.392;2023-03-14T00:31:03;8.00;;;6.17;;
3101;SDS011;1561;42.666;23.392;2023-03-14T00:33:31;6.83;;;5.50;;
3101;SDS011;1561;42.666;23.392;2023-03-14T00:36:00;11.73;;;8.07;;
3101;SDS011;1561;42.666;23.392;2023-03-14T00:38:29;8.70;;;7.30;;
3101;SDS011;1561;42.666;23.392;2023-03-14T00:40:58;9.67;;;7.70;;
3101;SDS011;1561;42.666;23.392;2023-03-14T00:43:25;13.77;;;9.27;;
3101;SDS011;1561;42.666;23.392;2023-03-14T00:45:52;21.20;;;12.20;;
3101;SDS011;1561;42.666;23.392;2023-03-14T00:48:19;13.93;;;10.37;;
3101;SDS011;1561;42.666;23.392;2023-03-14T00:50:48;15.57;;;9.93;;
3101;SDS011;1561;42.666;23.392;2023-03-14T00:53:16;10.47;;;7.37;;
3101;SDS011;1561;42.666;23.392;2023-03-14T00:55:44;9.20;;;7.13;;
3101;SDS011;1561;42.666;23.392;2023-03-14T00:58:12;9.00;;;6.90;;
3101;SDS011;1561;42.666;23.392;2023-03-14T01:00:41;8.73;;;6.20;;
3101;SDS011;1561;42.666;23.392;2023-03-14T01:03:09;8.00;;;6.27;;
3101;SDS011;1561;42.666;23.392;2023-03-14T01:05:38;10.00;;;7.37;;
3101;SDS011;1561;42.666;23.392;2023-03-14T01:08:05;23.87;;;12.50;;
3101;SDS011;1561;42.666;23.392;2023-03-14T01:10:34;15.00;;;9.77;;
3101;SDS011;1561;42.666;23.392;2023-03-14T01:13:04;9.03;;;6.90;;
3101;SDS011;1561;42.666;23.392;2023-03-14T01:15:31;9.10;;;6.87;;
3101;SDS011;1561;42.666;23.392;2023-03-14T01:17:58;11.00;;;5.93;;
3101;SDS011;1561;42.666;23.392;2023-03-14T01:20:25;7.07;;;5.50;;
3101;SDS011;1561;42.666;23.392;2023-03-14T01:22:52;6.53;;;5.77;;
3101;SDS011;1561;42.666;23.392;2023-03-14T01:25:19;8.40;;;6.03;;
3101;SDS011;1561;42.666;23.392;2023-03-14T01:27:47;7.50;;;5.40;;
3101;SDS011;1561;42.666;23.392;2023-03-14T01:30:15;7.90;;;5.90;;
3101;SDS011;1561;42.666;23.392;2023-03-14T01:32:42;7.10;;;5.83;;
3101;SDS011;1561;42.666;23.392;2023-03-14T01:35:09;10.17;;;5.60;;
3101;SDS011;1561;42.666;23.392;2023-03-14T01:37:36;5.90;;;4.60;;
3101;SDS011;1561;42.666;23.392;2023-03-14T01:40:06;6.87;;;5.23;;
3101;SDS011;1561;42.666;23.392;2023-03-14T01:42:36;8.93;;;6.27;;
3101;SDS011;1561;42.666;23.392;2023-03-14T01:45:05;6.13;;;5.13;;
3101;SDS011;1561;42.666;23.392;2023-03-14T01:47:47;9.30;;;5.60;;
3101;SDS011;1561;42.666;23.392;2023-03-14T01:50:14;7.67;;;5.03;;
3101;SDS011;1561;42.666;23.392;2023-03-14T01:52:42;7.30;;;6.20;;
3101;SDS011;1561;42.666;23.392;2023-03-14T01:55:14;7.87;;;5.60;;
3101;SDS011;1561;42.666;23.392;2023-03-14T01:57:44;6.70;;;6.10;;
3101;SDS011;1561;42.666;23.392;2023-03-14T02:00:17;8.90;;;6.23;;
3101;SDS011;1561;42.666;23.392;2023-03-14T02:02:47;11.17;;;6.43;;
3101;SDS011;1561;42.666;23.392;2023-03-14T02:05:16;8.63;;;7.23;;
3101;SDS011;1561;42.666;23.392;2023-03-14T02:07:47;8.60;;;5.90;;
3101;SDS011;1561;42.666;23.392;2023-03-14T02:10:16;8.10;;;6.47;;
3101;SDS011;1561;42.666;23.392;2023-03-14T02:12:47;9.47;;;6.53;;
3101;SDS011;1561;42.666;23.392;2023-03-14T02:15:17;10.70;;;6.90;;
3101;SDS011;1561;42.666;23.392;2023-03-14T02:17:45;11.40;;;7.10;;
3101;SDS011;1561;42.666;23.392;2023-03-14T02:23:04;10.83;;;6.80;;
3101;SDS011;1561;42.666;23.392;2023-03-14T02:25:35;8.30;;;6.40;;
3101;SDS011;1561;42.666;23.392;2023-03-14T02:28:10;7.97;;;5.63;;
3101;SDS011;1561;42.666;23.392;2023-03-14T02:30:38;10.63;;;6.10;;
3101;SDS011;1561;42.666;23.392;2023-03-14T02:33:05;10.90;;;7.00;;
3101;SDS011;1561;42.666;23.392;2023-03-14T02:35:35;9.13;;;6.50;;
3101;SDS011;1561;42.666;23.392;2023-03-14T02:38:09;8.07;;;5.60;;
3101;SDS011;1561;42.666;23.392;2023-03-14T02:40:43;8.37;;;6.27;;
3101;SDS011;1561;42.666;23.392;2023-03-14T02:43:12;10.70;;;6.80;;
3101;SDS011;1561;42.666;23.392;2023-03-14T02:45:43;21.30;;;7.17;;
3101;SDS011;1561;42.666;23.392;2023-03-14T02:48:13;11.53;;;6.93;;
3101;SDS011;1561;42.666;23.392;2023-03-14T02:50:42;8.50;;;7.03;;
3101;SDS011;1561;42.666;23.392;2023-03-14T02:53:12;12.90;;;6.87;;
3101;SDS011;1561;42.666;23.392;2023-03-14T02:55:44;11.70;;;7.43;;
3101;SDS011;1561;42.666;23.392;2023-03-14T02:58:13;9.90;;;6.20;;
3101;SDS011;1561;42.666;23.392;2023-03-14T03:00:40;8.20;;;6.27;;
3101;SDS011;1561;42.666;23.392;2023-03-14T03:03:07;12.77;;;6.60;;
3101;SDS011;1561;42.666;23.392;2023-03-14T03:05:47;12.70;;;8.50;;
3101;SDS011;1561;42.666;23.392;2023-03-14T03:10:56;15.30;;;9.87;;
3101;SDS011;1561;42.666;23.392;2023-03-14T03:13:26;12.50;;;8.60;;
3101;SDS011;1561;42.666;23.392;2023-03-14T03:15:52;12.80;;;9.07;;
3101;SDS011;1561;42.666;23.392;2023-03-14T03:18:22;12.90;;;8.70;;
3101;SDS011;1561;42.666;23.392;2023-03-14T03:23:53;12.43;;;7.90;;
3101;SDS011;1561;42.666;23.392;2023-03-14T03:26:19;12.03;;;7.37;;
3101;SDS011;1561;42.666;23.392;2023-03-14T03:28:48;11.60;;;8.10;;
3101;SDS011;1561;42.666;23.392;2023-03-14T03:31:17;14.13;;;8.30;;
3101;SDS011;1561;42.666;23.392;2023-03-14T03:33:47;11.00;;;8.00;;
3101;SDS011;1561;42.666;23.392;2023-03-14T03:36:14;14.70;;;8.90;;
3101;SDS011;1561;42.666;23.392;2023-03-14T03:38:55;15.80;;;9.10;;
3101;SDS011;1561;42.666;23.392;2023-03-14T03:41:22;12.30;;;8.03;;
3101;SDS011;1561;42.666;23.392;2023-03-14T03:43:51;18.23;;;10.17;;
3101;SDS011;1561;42.666;23.392;2023-03-14T03:46:19;15.37;;;8.73;;
3101;SDS011;1561;42.666;23.392;2023-03-14T03:48:46;14.97;;;9.63;;
3101;SDS011;1561;42.666;23.392;2023-03-14T03:51:13;18.40;;;9.80;;
3101;SDS011;1561;42.666;23.392;2023-03-14T03:53:40;14.70;;;8.77;;
3101;SDS011;1561;42.666;23.392;2023-03-14T03:56:08;21.53;;;10.63;;
3101;SDS011;1561;42.666;23.392;2023-03-14T03:58:36;16.80;;;10.53;;
3101;SDS011;1561;42.666;23.392;2023-03-14T04:01:06;18.93;;;10.87;;
3101;SDS011;1561;42.666;23.392;2023-03-14T04:03:32;20.23;;;11.67;;
3101;SDS011;1561;42.666;23.392;2023-03-14T04:06:04;17.37;;;11.20;;
3101;SDS011;1561;42.666;23.392;2023-03-14T04:08:32;20.20;;;11.87;;
3101;SDS011;1561;42.666;23.392;2023-03-14T04:11:02;30.07;;;12.83;;
3101;SDS011;1561;42.666;23.392;2023-03-14T04:13:29;20.40;;;11.60;;
3101;SDS011;1561;42.666;23.392;2023-03-14T04:15:56;19.47;;;12.30;;
3101;SDS011;1561;42.666;23.392;2023-03-14T04:18:25;17.23;;;11.53;;
3101;SDS011;1561;42.666;23.392;2023-03-14T04:20:52;20.87;;;11.60;;
3101;SDS011;1561;42.666;23.392;2023-03-14T04:23:21;21.63;;;12.87;;
3101;SDS011;1561;42.666;23.392;2023-03-14T04:25:49;20.70;;;10.70;;
3101;SDS011;1561;42.666;23.392;2023-03-14T04:28:22;22.23;;;11.00;;
3101;SDS011;1561;42.666;23.392;2023-03-14T04:30:49;24.40;;;12.70;;
3101;SDS011;1561;42.666;23.392;2023-03-14T04:33:16;23.10;;;12.20;;
3101;SDS011;1561;42.666;23.392;2023-03-14T04:35:44;21.33;;;13.33;;
3101;SDS011;1561;42.666;23.392;2023-03-14T04:38:13;19.90;;;11.73;;
3101;SDS011;1561;42.666;23.392;2023-03-14T04:40:40;23.50;;;12.00;;
3101;SDS011;1561;42.666;23.392;2023-03-14T04:43:07;23.43;;;12.67;;
3101;SDS011;1561;42.666;23.392;2023-03-14T04:45:35;29.03;;;13.07;;
3101;SDS011;1561;42.666;23.392;2023-03-14T04:48:02;22.57;;;12.57;;
3101;SDS011;1561;42.666;23.392;2023-03-14T04:50:29;17.37;;;12.30;;
3101;SDS011;1561;42.666;23.392;2023-03-14T04:53:00;23.73;;;13.67;;
3101;SDS011;1561;42.666;23.392;2023-03-14T04:55:26;17.40;;;12.37;;
3101;SDS011;1561;42.666;23.392;2023-03-14T04:57:57;20.33;;;13.57;;
3101;SDS011;1561;42.666;23.392;2023-03-14T05:00:23;18.87;;;11.97;;
3101;SDS011;1561;42.666;23.392;2023-03-14T05:02:50;21.83;;;13.67;;
3101;SDS011;1561;42.666;23.392;2023-03-14T05:05:17;21.37;;;13.80;;
3101;SDS011;1561;42.666;23.392;2023-03-14T05:07:46;23.20;;;13.83;;
3101;SDS011;1561;42.666;23.392;2023-03-14T05:10:15;22.53;;;13.57;;
3101;SDS011;1561;42.666;23.392;2023-03-14T05:12:48;26.00;;;15.60;;
3101;SDS011;1561;42.666;23.392;2023-03-14T05:15:17;32.20;;;16.07;;
3101;SDS011;1561;42.666;23.392;2023-03-14T05:17:44;29.33;;;18.00;;
3101;SDS011;1561;42.666;23.392;2023-03-14T05:20:11;32.47;;;19.23;;
3101;SDS011;1561;42.666;23.392;2023-03-14T05:22:39;36.60;;;21.53;;
3101;SDS011;1561;42.666;23.392;2023-03-14T05:25:06;26.40;;;18.73;;
3101;SDS011;1561;42.666;23.392;2023-03-14T05:27:35;34.73;;;20.13;;
3101;SDS011;1561;42.666;23.392;2023-03-14T05:30:02;34.17;;;21.73;;
3101;SDS011;1561;42.666;23.392;2023-03-14T05:32:29;28.03;;;18.63;;
3101;SDS011;1561;42.666;23.392;2023-03-14T05:34:56;29.73;;;18.00;;
3101;SDS011;1561;42.666;23.392;2023-03-14T05:37:24;41.67;;;19.63;;
3101;SDS011;1561;42.666;23.392;2023-03-14T05:39:51;28.60;;;19.20;;
3101;SDS011;1561;42.666;23.392;2023-03-14T05:42:17;35.83;;;19.33;;
3101;SDS011;1561;42.666;23.392;2023-03-14T05:44:47;27.90;;;18.33;;
3101;SDS011;1561;42.666;23.392;2023-03-14T05:47:14;27.90;;;18.33;;
3101;SDS011;1561;42.666;23.392;2023-03-14T05:49:40;26.07;;;17.90;;
3101;SDS011;1561;42.666;23.392;2023-03-14T05:52:07;21.20;;;17.10;;
3101;SDS011;1561;42.666;23.392;2023-03-14T05:54:34;24.27;;;17.63;;
3101;SDS011;1561;42.666;23.392;2023-03-14T05:57:03;26.00;;;17.27;;
3101;SDS011;1561;42.666;23.392;2023-03-14T05:59:30;25.87;;;16.80;;
3101;SDS011;1561;42.666;23.392;2023-03-14T06:01:58;23.13;;;16.50;;
3101;SDS011;1561;42.666;23.392;2023-03-14T06:04:26;21.30;;;16.40;;
3101;SDS011;1561;42.666;23.392;2023-03-14T06:07:03;27.00;;;16.80;;
3101;SDS011;1561;42.666;23.392;2023-03-14T06:09:29;18.47;;;14.83;;
3101;SDS011;1561;42.666;23.392;2023-03-14T06:11:57;18.70;;;14.77;;
3101;SDS011;1561;42.666;23.392;2023-03-14T06:17:40;29.03;;;17.00;;
3101;SDS011;1561;42.666;23.392;2023-03-14T06:23:34;21.97;;;16.57;;
3101;SDS011;1561;42.666;23.392;2023-03-14T06:26:04;29.07;;;15.80;;
3101;SDS011;1561;42.666;23.392;2023-03-14T06:28:31;24.73;;;16.20;;
3101;SDS011;1561;42.666;23.392;2023-03-14T06:30:58;21.30;;;16.87;;
3101;SDS011;1561;42.666;23.392;2023-03-14T06:39:40;21.00;;;16.37;;
3101;SDS011;1561;42.666;23.392;2023-03-14T06:42:09;20.67;;;15.17;;
3101;SDS011;1561;42.666;23.392;2023-03-14T06:44:36;21.83;;;16.77;;
3101;SDS011;1561;42.666;23.392;2023-03-14T06:53:30;20.27;;;14.73;;
3101;SDS011;1561;42.666;23.392;2023-03-14T06:55:56;23.23;;;16.60;;
3101;SDS011;1561;42.666;23.392;2023-03-14T06:58:23;20.73;;;16.03;;
3101;SDS011;1561;42.666;23.392;2023-03-14T07:00:52;22.47;;;16.70;;
3101;SDS011;1561;42.666;23.392;2023-03-14T07:03:19;20.30;;;15.50;;
3101;SDS011;1561;42.666;23.392;2023-03-14T07:05:46;17.57;;;14.93;;
3101;SDS011;1561;42.666;23.392;2023-03-14T07:08:16;19.63;;;15.27;;
3101;SDS011;1561;42.666;23.392;2023-03-14T07:10:46;21.23;;;15.57;;
3101;SDS011;1561;42.666;23.392;2023-03-14T07:13:13;16.90;;;14.13;;
3101;SDS011;1561;42.666;23.392;2023-03-14T07:15:40;18.30;;;16.30;;
3101;SDS011;1561;42.666;23.392;2023-03-14T07:18:09;21.33;;;17.40;;
3101;SDS011;1561;42.666;23.392;2023-03-14T07:20:36;23.33;;;18.00;;
3101;SDS011;1561;42.666;23.392;2023-03-14T07:23:03;29.83;;;17.87;;
3101;SDS011;1561;42.666;23.392;2023-03-14T07:25:30;23.93;;;16.77;;
3101;SDS011;1561;42.666;23.392;2023-03-14T07:27:58;18.23;;;16.20;;
3101;SDS011;1561;42.666;23.392;2023-03-14T07:30:26;23.00;;;15.40;;
3101;SDS011;1561;42.666;23.392;2023-03-14T07:32:53;23.03;;;18.10;;
3101;SDS011;1561;42.666;23.392;2023-03-14T07:35:20;24.37;;;18.00;;
3101;SDS011;1561;42.666;23.392;2023-03-14T07:37:48;35.20;;;21.80;;
3101;SDS011;1561;42.666;23.392;2023-03-14T07:40:15;20.30;;;15.80;;
3101;SDS011;1561;42.666;23.392;2023-03-14T07:42:44;16.13;;;13.93;;
3101;SDS011;1561;42.666;23.392;2023-03-14T07:45:12;20.90;;;15.90;;
3101;SDS011;1561;42.666;23.392;2023-03-14T07:47:40;20.40;;;16.30;;
3101;SDS011;1561;42.666;23.392;2023-03-14T07:50:07;26.90;;;15.23;;
3101;SDS011;1561;42.666;23.392;2023-03-14T07:52:35;15.53;;;13.80;;
3101;SDS011;1561;42.666;23.392;2023-03-14T07:55:04;19.60;;;13.80;;
3101;SDS011;1561;42.666;23.392;2023-03-14T07:57:31;15.13;;;13.33;;
3101;SDS011;1561;42.666;23.392;2023-03-14T07:59:58;16.50;;;14.33;;
3101;SDS011;1561;42.666;23.392;2023-03-14T08:02:32;15.30;;;11.90;;
3101;SDS011;1561;42.666;23.392;2023-03-14T08:04:58;18.57;;;12.80;;
3101;SDS011;1561;42.666;23.392;2023-03-14T08:07:26;19.23;;;12.13;;
3101;SDS011;1561;42.666;23.392;2023-03-14T08:09:56;17.40;;;13.80;;
3101;SDS011;1561;42.666;23.392;2023-03-14T08:12:24;15.03;;;12.40;;
3101;SDS011;1561;42.666;23.392;2023-03-14T08:14:55;14.53;;;12.13;;
3101;SDS011;1561;42.666;23.392;2023-03-14T08:17:24;13.97;;;12.00;;
3101;SDS011;1561;42.666;23.392;2023-03-14T08:19:53;14.80;;;11.13;;
3101;SDS011;1561;42.666;23.392;2023-03-14T08:22:19;13.10;;;10.73;;
3101;SDS011;1561;42.666;23.392;2023-03-14T08:24:46;12.53;;;11.23;;
3101;SDS011;1561;42.666;23.392;2023-03-14T08:27:13;15.60;;;12.40;;
3101;SDS011;1561;42.666;23.392;2023-03-14T08:29:40;14.83;;;12.27;;
3101;SDS011;1561;42.666;23.392;2023-03-14T08:32:08;14.57;;;12.10;;
3101;SDS011;1561;42.666;23.392;2023-03-14T08:34:35;14.82;;;12.18;;
3101;SDS011;1561;42.666;23.392;2023-03-14T08:37:04;14.60;;;12.20;;
3101;SDS011;1561;42.666;23.392;2023-03-14T08:39:31;13.07;;;11.70;;
3101;SDS011;1561;42.666;23.392;2023-03-14T08:41:59;18.45;;;12.45;;
3101;SDS011;1561;42.666;23.392;2023-03-14T08:44:26;16.48;;;11.43;;
3101;SDS011;1561;42.666;23.392;2023-03-14T08:46:54;13.05;;;10.57;;
3101;SDS011;1561;42.666;23.392;2023-03-14T08:49:23;10.82;;;9.50;;
3101;SDS011;1561;42.666;23.392;2023-03-14T08:51:51;10.88;;;9.77;;
3101;SDS011;1561;42.666;23.392;2023-03-14T08:54:21;11.90;;;10.80;;
3101;SDS011;1561;42.666;23.392;2023-03-14T08:56:50;11.18;;;9.82;;
3101;SDS011;1561;42.666;23.392;2023-03-14T08:59:18;13.93;;;10.52;;
3101;SDS011;1561;42.666;23.392;2023-03-14T09:01:45;11.77;;;10.30;;
3101;SDS011;1561;42.666;23.392;2023-03-14T09:04:15;13.32;;;10.77;;
3101;SDS011;1561;42.666;23.392;2023-03-14T09:06:43;11.63;;;9.93;;
3101;SDS011;1561;42.666;23.392;2023-03-14T09:09:12;16.88;;;9.38;;
3101;SDS011;1561;42.666;23.392;2023-03-14T09:11:43;8.63;;;7.82;;
3101;SDS011;1561;42.666;23.392;2023-03-14T09:14:10;9.48;;;8.52;;
3101;SDS011;1561;42.666;23.392;2023-03-14T09:16:38;13.23;;;9.60;;
3101;SDS011;1561;42.666;23.392;2023-03-14T09:19:05;13.15;;;10.95;;
3101;SDS011;1561;42.666;23.392;2023-03-14T09:21:32;14.93;;;11.93;;
3101;SDS011;1561;42.666;23.392;2023-03-14T09:23:59;15.57;;;13.13;;
3101;SDS011;1561;42.666;23.392;2023-03-14T09:26:27;15.82;;;13.13;;
3101;SDS011;1561;42.666;23.392;2023-03-14T09:28:55;27.55;;;20.15;;
3101;SDS011;1561;42.666;23.392;2023-03-14T09:31:23;22.08;;;13.25;;
3101;SDS011;1561;42.666;23.392;2023-03-14T09:33:55;18.63;;;13.65;;
3101;SDS011;1561;42.666;23.392;2023-03-14T09:36:23;15.25;;;13.63;;
3101;SDS011;1561;42.666;23.392;2023-03-14T09:38:51;14.65;;;13.07;;
3101;SDS011;1561;42.666;23.392;2023-03-14T09:41:21;17.50;;;13.85;;
3101;SDS011;1561;42.666;23.392;2023-03-14T09:43:58;21.88;;;13.85;;
3101;SDS011;1561;42.666;23.392;2023-03-14T09:46:32;17.75;;;14.75;;
3101;SDS011;1561;42.666;23.392;2023-03-14T09:49:02;12.77;;;10.18;;
3101;SDS011;1561;42.666;23.392;2023-03-14T09:51:31;11.27;;;9.57;;
3101;SDS011;1561;42.666;23.392;2023-03-14T09:53:58;9.73;;;8.23;;
3101;SDS011;1561;42.666;23.392;2023-03-14T09:56:26;10.80;;;8.27;;
3101;SDS011;1561;42.666;23.392;2023-03-14T09:59:03;9.88;;;8.98;;
3101;SDS011;1561;42.666;23.392;2023-03-14T10:01:34;9.23;;;8.32;;
3101;SDS011;1561;42.666;23.392;2023-03-14T10:04:05;9.57;;;8.13;;
3101;SDS011;1561;42.666;23.392;2023-03-14T10:06:39;8.93;;;8.00;;
3101;SDS011;1561;42.666;23.392;2023-03-14T10:09:08;12.55;;;10.02;;
3101;SDS011;1561;42.666;23.392;2023-03-14T10:11:43;10.38;;;9.32;;
3101;SDS011;1561;42.666;23.392;2023-03-14T10:14:13;8.73;;;7.75;;
3101;SDS011;1561;42.666;23.392;2023-03-14T10:17:04;8.02;;;7.32;;
3101;SDS011;1561;42.666;23.392;2023-03-14T10:19:33;8.65;;;7.00;;
3101;SDS011;1561;42.666;23.392;2023-03-14T10:22:02;6.80;;;6.10;;
3101;SDS011;1561;42.666;23.392;2023-03-14T10:24:31;7.28;;;6.68;;
3101;SDS011;1561;42.666;23.392;2023-03-14T10:26:59;9.75;;;6.82;;
3101;SDS011;1561;42.666;23.392;2023-03-14T10:29:29;7.38;;;6.20;;
3101;SDS011;1561;42.666;23.392;2023-03-14T10:32:03;6.53;;;5.85;;
3101;SDS011;1561;42.666;23.392;2023-03-14T10:34:33;7.60;;;6.65;;
3101;SDS011;1561;42.666;23.392;2023-03-14T10:37:05;6.35;;;5.78;;
3101;SDS011;1561;42.666;23.392;2023-03-14T10:39:40;6.60;;;5.93;;
3101;SDS011;1561;42.666;23.392;2023-03-14T10:42:12;7.22;;;6.57;;
3101;SDS011;1561;42.666;23.392;2023-03-14T10:44:45;8.07;;;6.38;;
3101;SDS011;1561;42.666;23.392;2023-03-14T10:47:18;11.82;;;8.60;;
3101;SDS011;1561;42.666;23.392;2023-03-14T10:50:23;7.97;;;7.18;;
3101;SDS011;1561;42.666;23.392;2023-03-14T10:53:03;5.75;;;5.35;;
3101;SDS011;1561;42.666;23.392;2023-03-14T10:56:02;5.28;;;4.88;;
3101;SDS011;1561;42.666;23.392;2023-03-14T10:59:15;5.53;;;5.03;;
3101;SDS011;1561;42.666;23.392;2023-03-14T11:01:44;8.15;;;6.70;;
3101;SDS011;1561;42.666;23.392;2023-03-14T11:04:20;6.28;;;5.53;;
3101;SDS011;1561;42.666;23.392;2023-03-14T11:07:21;9.40;;;7.63;;
3101;SDS011;1561;42.666;23.392;2023-03-14T11:10:10;7.13;;;5.90;;
3101;SDS011;1561;42.666;23.392;2023-03-14T11:12:46;119.65;;;63.03;;
3101;SDS011;1561;42.666;23.392;2023-03-14T11:15:27;11.68;;;8.10;;
3101;SDS011;1561;42.666;23.392;2023-03-14T11:18:06;12.10;;;5.45;;
3101;SDS011;1561;42.666;23.392;2023-03-14T11:21:02;5.45;;;4.95;;
3101;SDS011;1561;42.666;23.392;2023-03-14T11:23:39;6.78;;;4.32;;
3101;SDS011;1561;42.666;23.392;2023-03-14T11:26:20;5.97;;;4.85;;
3101;SDS011;1561;42.666;23.392;2023-03-14T11:28:56;5.40;;;4.90;;
3101;SDS011;1561;42.666;23.392;2023-03-14T11:31:31;6.07;;;5.38;;
3101;SDS011;1561;42.666;23.392;2023-03-14T11:34:07;5.53;;;4.70;;
3101;SDS011;1561;42.666;23.392;2023-03-14T11:36:44;5.22;;;4.82;;
3101;SDS011;1561;42.666;23.392;2023-03-14T11:39:16;5.32;;;4.93;;
3101;SDS011;1561;42.666;23.392;2023-03-14T11:41:46;6.05;;;5.50;;
3101;SDS011;1561;42.666;23.392;2023-03-14T11:44:17;4.80;;;4.35;;
3101;SDS011;1561;42.666;23.392;2023-03-14T11:46:47;5.05;;;4.50;;
3101;SDS011;1561;42.666;23.392;2023-03-14T11:49:22;5.00;;;4.50;;
3101;SDS011;1561;42.666;23.392;2023-03-14T11:51:59;5.32;;;4.82;;
3101;SDS011;1561;42.666;23.392;2023-03-14T11:54:34;6.80;;;5.28;;
3101;SDS011;1561;42.666;23.392;2023-03-14T11:57:10;6.20;;;4.80;;
3101;SDS011;1561;42.666;23.392;2023-03-14T11:59:42;4.93;;;4.47;;
3101;SDS011;1561;42.666;23.392;2023-03-14T12:02:16;6.95;;;4.50;;
3101;SDS011;1561;42.666;23.392;2023-03-14T12:04:53;3.80;;;3.50;;
3101;SDS011;1561;42.666;23.392;2023-03-14T12:07:42;5.20;;;4.70;;
3101;SDS011;1561;42.666;23.392;2023-03-14T12:10:30;6.68;;;4.03;;
3101;SDS011;1561;42.666;23.392;2023-03-14T12:13:04;3.70;;;3.22;;
3101;SDS011;1561;42.666;23.392;2023-03-14T12:15:38;3.80;;;3.50;;
3101;SDS011;1561;42.666;23.392;2023-03-14T12:18:14;3.70;;;3.40;;
3101;SDS011;1561;42.666;23.392;2023-03-14T12:20:51;3.35;;;3.08;;
3101;SDS011;1561;42.666;23.392;2023-03-14T12:23:20;3.42;;;3.13;;
3101;SDS011;1561;42.666;23.392;2023-03-14T12:25:48;5.15;;;3.80;;
3101;SDS011;1561;42.666;23.392;2023-03-14T12:28:42;3.85;;;3.55;;
3101;SDS011;1561;42.666;23.392;2023-03-14T12:34:03;4.90;;;3.38;;
3101;SDS011;1561;42.666;23.392;2023-03-14T12:37:02;4.57;;;3.83;;
3101;SDS011;1561;42.666;23.392;2023-03-14T12:39:44;3.95;;;3.65;;
3101;SDS011;1561;42.666;23.392;2023-03-14T12:42:21;3.25;;;3.05;;
3101;SDS011;1561;42.666;23.392;2023-03-14T12:47:54;3.40;;;3.10;;
3101;SDS011;1561;42.666;23.392;2023-03-14T12:50:29;3.55;;;3.25;;
3101;SDS011;1561;42.666;23.392;2023-03-14T12:53:10;3.45;;;3.10;;
3101;SDS011;1561;42.666;23.392;2023-03-14T12:55:56;3.72;;;3.22;;
3101;SDS011;1561;42.666;23.392;2023-03-14T12:58:31;3.53;;;3.22;;
3101;SDS011;1561;42.666;23.392;2023-03-14T13:01:03;3.47;;;3.15;;
3101;SDS011;1561;42.666;23.392;2023-03-14T13:03:40;3.85;;;3.47;;
3101;SDS011;1561;42.666;23.392;2023-03-14T13:06:13;3.38;;;3.17;;
3101;SDS011;1561;42.666;23.392;2023-03-14T13:12:16;3.70;;;3.10;;
3101;SDS011;1561;42.666;23.392;2023-03-14T13:14:49;3.42;;;3.10;;
3101;SDS011;1561;42.666;23.392;2023-03-14T13:17:20;4.10;;;3.30;;
3101;SDS011;1561;42.666;23.392;2023-03-14T13:19:52;3.50;;;3.20;;
3101;SDS011;1561;42.666;23.392;2023-03-14T13:22:23;3.23;;;2.90;;
3101;SDS011;1561;42.666;23.392;2023-03-14T13:25:01;3.23;;;2.63;;
3101;SDS011;1561;42.666;23.392;2023-03-14T13:27:31;3.35;;;3.05;;
3101;SDS011;1561;42.666;23.392;2023-03-14T13:30:05;4.45;;;2.95;;
3101;SDS011;1561;42.666;23.392;2023-03-14T13:32:41;5.65;;;3.33;;
3101;SDS011;1561;42.666;23.392;2023-03-14T13:35:14;2.60;;;2.47;;
3101;SDS011;1561;42.666;23.392;2023-03-14T13:37:42;3.57;;;3.27;;
3101;SDS011;1561;42.666;23.392;2023-03-14T13:40:20;3.87;;;3.57;;
3101;SDS011;1561;42.666;23.392;2023-03-14T13:42:59;3.60;;;3.00;;
3101;SDS011;1561;42.666;23.392;2023-03-14T13:45:28;5.97;;;3.00;;
3101;SDS011;1561;42.666;23.392;2023-03-14T13:47:55;3.20;;;3.00;;
3101;SDS011;1561;42.666;23.392;2023-03-14T13:50:24;2.40;;;2.30;;
3101;SDS011;1561;42.666;23.392;2023-03-14T13:52:56;3.10;;;2.73;;
3101;SDS011;1561;42.666;23.392;2023-03-14T13:55:26;3.23;;;2.93;;
3101;SDS011;1561;42.666;23.392;2023-03-14T13:57:55;3.97;;;3.20;;
3101;SDS011;1561;42.666;23.392;2023-03-14T14:00:23;5.30;;;3.07;;
3101;SDS011;1561;42.666;23.392;2023-03-14T14:02:52;3.13;;;2.83;;
3101;SDS011;1561;42.666;23.392;2023-03-14T14:05:21;7.00;;;3.00;;
3101;SDS011;1561;42.666;23.392;2023-03-14T14:07:49;3.63;;;3.30;;
3101;SDS011;1561;42.666;23.392;2023-03-14T14:10:17;5.97;;;3.43;;
3101;SDS011;1561;42.666;23.392;2023-03-14T14:12:48;6.27;;;3.00;;
3101;SDS011;1561;42.666;23.392;2023-03-14T14:15:18;3.50;;;3.13;;
3101;SDS011;1561;42.666;23.392;2023-03-14T14:17:49;4.73;;;3.63;;
3101;SDS011;1561;42.666;23.392;2023-03-14T14:20:22;4.43;;;3.50;;
3101;SDS011;1561;42.666;23.392;2023-03-14T14:22:56;2.70;;;2.50;;
3101;SDS011;1561;42.666;23.392;2023-03-14T14:25:25;3.83;;;3.40;;
3101;SDS011;1561;42.666;23.392;2023-03-14T14:27:56;5.40;;;3.63;;
3101;SDS011;1561;42.666;23.392;2023-03-14T14:30:27;3.60;;;3.30;;
3101;SDS011;1561;42.666;23.392;2023-03-14T14:33:09;3.33;;;3.03;;
3101;SDS011;1561;42.666;23.392;2023-03-14T14:35:38;3.73;;;2.80;;
3101;SDS011;1561;42.666;23.392;2023-03-14T14:38:09;3.47;;;2.70;;
3101;SDS011;1561;42.666;23.392;2023-03-14T14:40:43;5.40;;;3.47;;
3101;SDS011;1561;42.666;23.392;2023-03-14T14:43:14;4.93;;;4.17;;
3101;SDS011;1561;42.666;23.392;2023-03-14T14:45:43;9.13;;;6.20;;
3101;SDS011;1561;42.666;23.392;2023-03-14T14:48:13;9.37;;;4.80;;
3101;SDS011;1561;42.666;23.392;2023-03-14T14:53:36;4.40;;;4.00;;
3101;SDS011;1561;42.666;23.392;2023-03-14T14:56:06;5.20;;;3.67;;
3101;SDS011;1561;42.666;23.392;2023-03-14T14:58:45;5.33;;;4.77;;
3101;SDS011;1561;42.666;23.392;2023-03-14T15:01:13;6.63;;;4.30;;
3101;SDS011;1561;42.666;23.392;2023-03-14T15:03:42;5.03;;;3.63;;
3101;SDS011;1561;42.666;23.392;2023-03-14T15:06:11;3.50;;;3.23;;
3101;SDS011;1561;42.666;23.392;2023-03-14T15:08:40;4.17;;;3.50;;
3101;SDS011;1561;42.666;23.392;2023-03-14T15:11:08;3.40;;;3.17;;
3101;SDS011;1561;42.666;23.392;2023-03-14T15:13:42;7.23;;;3.53;;
3101;SDS011;1561;42.666;23.392;2023-03-14T15:16:11;4.00;;;3.70;;
3101;SDS011;1561;42.666;23.392;2023-03-14T15:18:41;4.23;;;3.70;;
3101;SDS011;1561;42.666;23.392;2023-03-14T15:21:09;3.63;;;3.33;;
3101;SDS011;1561;42.666;23.392;2023-03-14T15:23:37;5.27;;;3.00;;
3101;SDS011;1561;42.666;23.392;2023-03-14T15:26:05;3.30;;;3.10;;
3101;SDS011;1561;42.666;23.392;2023-03-14T15:28:39;3.53;;;3.20;;
3101;SDS011;1561;42.666;23.392;2023-03-14T15:31:08;3.83;;;2.80;;
3101;SDS011;1561;42.666;23.392;2023-03-14T15:33:39;4.00;;;3.50;;
3101;SDS011;1561;42.666;23.392;2023-03-14T15:36:13;3.33;;;3.07;;
3101;SDS011;1561;42.666;23.392;2023-03-14T15:38:48;3.40;;;3.10;;
3101;SDS011;1561;42.666;23.392;2023-03-14T15:41:16;3.53;;;3.20;;
3101;SDS011;1561;42.666;23.392;2023-03-14T15:43:43;3.60;;;3.30;;
3101;SDS011;1561;42.666;23.392;2023-03-14T15:46:12;5.37;;;3.70;;
3101;SDS011;1561;42.666;23.392;2023-03-14T15:48:42;4.53;;;3.23;;
3101;SDS011;1561;42.666;23.392;2023-03-14T15:51:09;5.60;;;3.40;;